Time;durP1;ratioP1;P1;durP2;ratioP2;P2;SDS_P1;SDS_P2;PMS_P1;PMS_P2;Temp;Humidity;BMP_temperature;BMP_pressure;BME280_temperature;BME280_humidity;BME280_pressure;Samples;Min_cycle;Max_cycle;Signal;HPM_P1;HPM_P2
2022/06/05 00:00:58;;;;;;;8.43;7.63;;;14.20;99.90;;;;;;5054285;28;20665;-67
2022/06/05 00:03:34;;;;;;;8.77;7.90;;;14.10;99.90;;;;;;5056013;28;20251;-66
2022/06/05 00:06:11;;;;;;;7.97;7.17;;;14.10;99.90;;;;;;5058414;28;20234;-67
2022/06/05 00:08:59;;;;;;;9.53;8.20;;;14.10;99.90;;;;;;5058531;28;20219;-67
2022/06/05 00:11:32;;;;;;;8.90;7.20;;;14.00;99.90;;;;;;5056346;28;20232;-67
2022/06/05 00:14:00;;;;;;;7.80;6.80;;;13.90;99.90;;;;;;5052842;28;20232;-67
2022/06/05 00:16:30;;;;;;;7.60;6.77;;;13.90;99.90;;;;;;5058557;28;20691;-67
2022/06/05 00:18:58;;;;;;;7.57;6.87;;;13.90;99.90;;;;;;5057203;28;20250;-66
2022/06/05 00:21:28;;;;;;;8.80;7.07;;;13.90;99.90;;;;;;5058295;28;20699;-67
2022/06/05 00:23:58;;;;;;;9.37;7.07;;;13.90;99.90;;;;;;5058420;28;20231;-67
2022/06/05 00:26:31;;;;;;;7.37;6.63;;;13.80;99.90;;;;;;5058280;28;20714;-67
2022/06/05 00:29:10;;;;;;;8.03;6.60;;;13.90;99.90;;;;;;5057148;28;20224;-66
2022/06/05 00:31:47;;;;;;;8.10;7.30;;;13.80;99.90;;;;;;5058206;28;20235;-66
2022/06/05 00:34:16;;;;;;;8.93;7.77;;;13.80;99.90;;;;;;5057577;28;20239;-67
2022/06/05 00:36:56;;;;;;;8.53;7.60;;;13.70;99.90;;;;;;5059031;28;20219;-67
2022/06/05 00:39:36;;;;;;;8.07;7.03;;;13.60;99.90;;;;;;5052813;28;20772;-66
2022/06/05 00:42:07;;;;;;;8.93;7.47;;;13.60;99.90;;;;;;5055425;28;20234;-67
2022/06/05 00:44:37;;;;;;;9.10;7.90;;;13.50;99.90;;;;;;5055253;28;20327;-67
2022/06/05 00:47:07;;;;;;;8.43;7.23;;;13.50;99.90;;;;;;5055436;28;20227;-67
2022/06/05 00:49:40;;;;;;;9.17;7.47;;;13.40;99.90;;;;;;5053368;28;20275;-67
2022/06/05 00:52:11;;;;;;;7.43;6.70;;;13.40;99.90;;;;;;5054548;28;20235;-66
2022/06/05 00:54:40;;;;;;;7.23;6.50;;;13.30;99.90;;;;;;5055110;28;20233;-67
2022/06/05 00:57:11;;;;;;;7.00;6.30;;;13.30;99.90;;;;;;5055292;28;20564;-67
2022/06/05 00:59:42;;;;;;;6.93;6.33;;;13.20;99.90;;;;;;5053473;28;20698;-67
2022/06/05 01:02:11;;;;;;;7.03;5.80;;;13.10;99.90;;;;;;5054787;28;20224;-67
2022/06/05 01:04:43;;;;;;;7.60;6.27;;;13.10;99.90;;;;;;5054516;28;20706;-67
2022/06/05 01:07:12;;;;;;;6.33;5.73;;;13.20;99.90;;;;;;5054845;28;20277;-66
2022/06/05 01:09:42;;;;;;;7.73;6.93;;;13.10;99.90;;;;;;5053844;28;20731;-67
2022/06/05 01:12:20;;;;;;;7.63;6.90;;;13.00;99.90;;;;;;5054667;28;20242;-67
2022/06/05 01:14:59;;;;;;;6.80;6.10;;;13.00;99.90;;;;;;5049899;28;20215;-67
2022/06/05 01:17:34;;;;;;;6.97;6.27;;;12.90;99.90;;;;;;5054881;28;20590;-67
2022/06/05 01:20:08;;;;;;;6.80;6.20;;;12.90;99.90;;;;;;5052945;28;20264;-67
2022/06/05 01:23:02;;;;;;;7.60;6.80;;;12.90;99.90;;;;;;5054088;28;20729;-67
2022/06/05 01:25:59;;;;;;;8.73;7.60;;;12.80;99.90;;;;;;5054018;28;20285;-66
2022/06/05 01:28:31;;;;;;;10.70;8.33;;;12.80;99.90;;;;;;5053845;28;20231;-67
2022/06/05 01:31:08;;;;;;;8.83;7.83;;;12.80;99.90;;;;;;5053135;28;20254;-67
2022/06/05 01:33:41;;;;;;;8.80;7.90;;;12.70;99.90;;;;;;5053640;28;20724;-66
2022/06/05 01:36:17;;;;;;;8.17;7.27;;;12.70;99.90;;;;;;5054501;28;20231;-67
2022/06/05 01:38:49;;;;;;;7.43;6.73;;;12.60;99.90;;;;;;5053599;28;20292;-67
2022/06/05 01:41:23;;;;;;;7.73;7.03;;;12.60;99.90;;;;;;5053324;28;20240;-66
2022/06/05 01:43:54;;;;;;;7.57;6.80;;;12.60;99.90;;;;;;5053964;28;20250;-67
2022/06/05 01:46:29;;;;;;;8.40;7.47;;;12.60;99.90;;;;;;5053760;28;20230;-67
2022/06/05 01:49:06;;;;;;;8.30;7.37;;;12.50;99.90;;;;;;5052173;28;20332;-66
2022/06/05 01:51:39;;;;;;;7.60;6.80;;;12.50;99.90;;;;;;5053092;28;20624;-67
2022/06/05 01:54:12;;;;;;;7.10;6.40;;;12.50;99.90;;;;;;5053716;28;20291;-67
2022/06/05 01:56:47;;;;;;;8.13;6.77;;;12.70;99.90;;;;;;5054041;28;20227;-67
2022/06/05 01:59:20;;;;;;;7.47;6.60;;;12.60;99.90;;;;;;5052390;28;20239;-67
2022/06/05 02:01:53;;;;;;;7.97;6.60;;;12.60;99.90;;;;;;5046636;28;20231;-67
2022/06/05 02:04:26;;;;;;;7.77;6.97;;;12.50;99.90;;;;;;5053022;28;20663;-66
2022/06/05 02:06:59;;;;;;;8.30;6.70;;;12.50;99.90;;;;;;5053640;28;20243;-67
2022/06/05 02:09:32;;;;;;;7.47;6.70;;;12.40;99.90;;;;;;5051593;28;20629;-67
2022/06/05 02:12:03;;;;;;;7.70;6.90;;;12.30;99.90;;;;;;5053414;28;20311;-67
2022/06/05 02:14:31;;;;;;;7.60;6.90;;;12.30;99.90;;;;;;5052749;28;20235;-67
2022/06/05 02:17:00;;;;;;;8.13;7.33;;;12.30;99.90;;;;;;5053744;28;20713;-67
2022/06/05 02:19:29;;;;;;;10.00;7.30;;;12.20;99.90;;;;;;5051646;28;20604;-66
2022/06/05 02:22:03;;;;;;;9.30;7.63;;;12.20;99.90;;;;;;5053068;28;20234;-67
2022/06/05 02:24:33;;;;;;;8.03;7.23;;;12.20;99.90;;;;;;5052750;28;20287;-67
2022/06/05 02:27:04;;;;;;;7.67;6.90;;;12.10;99.90;;;;;;5053243;28;20582;-67
2022/06/05 02:29:34;;;;;;;8.83;7.43;;;12.10;99.90;;;;;;5051337;28;20292;-67
2022/06/05 02:32:13;;;;;;;7.33;6.53;;;12.10;99.90;;;;;;5053141;28;20231;-67
2022/06/05 02:34:54;;;;;;;7.13;6.50;;;12.10;99.90;;;;;;5052297;28;20280;-67
2022/06/05 02:37:34;;;;;;;8.60;7.60;;;12.10;99.90;;;;;;5053031;28;20725;-67
2022/06/05 02:40:10;;;;;;;8.47;7.57;;;12.10;99.90;;;;;;5051511;28;20226;-67
2022/06/05 02:42:45;;;;;;;8.50;6.93;;;12.00;99.90;;;;;;5052668;28;20230;-67
2022/06/05 02:45:22;;;;;;;8.10;7.27;;;12.00;99.90;;;;;;5053082;28;20583;-67
2022/06/05 02:47:55;;;;;;;9.90;8.30;;;12.00;99.90;;;;;;5033291;28;20741;-67
2022/06/05 02:50:27;;;;;;;9.07;7.57;;;11.90;99.90;;;;;;5045020;28;20261;-68
2022/06/05 02:53:02;;;;;;;9.67;7.50;;;11.90;99.90;;;;;;5052958;28;20582;-67
2022/06/05 02:55:30;;;;;;;8.23;7.43;;;11.80;99.90;;;;;;5050917;28;20233;-67
2022/06/05 02:58:00;;;;;;;7.60;6.90;;;11.80;99.90;;;;;;5052638;28;20219;-67
2022/06/05 03:00:30;;;;;;;7.20;6.50;;;11.80;99.90;;;;;;5050515;28;20573;-67
2022/06/05 03:05:46;;;;;;;7.07;6.43;;;11.80;99.90;;;;;;5051458;28;20632;-67
2022/06/05 03:08:17;;;;;;;8.43;7.57;;;11.80;99.90;;;;;;5052413;28;20330;-67
2022/06/05 03:10:45;;;;;;;8.03;7.23;;;11.80;99.90;;;;;;5050908;28;20253;-67
2022/06/05 03:13:15;;;;;;;8.07;6.97;;;11.80;99.90;;;;;;5051898;28;20232;-67
2022/06/05 03:15:43;;;;;;;8.73;7.83;;;11.80;99.90;;;;;;5043938;28;20227;-67
2022/06/05 03:18:13;;;;;;;10.33;8.53;;;11.80;99.90;;;;;;5052238;28;20805;-66
2022/06/05 03:20:42;;;;;;;9.33;8.33;;;11.80;99.90;;;;;;5051116;28;20698;-67
2022/06/05 03:23:12;;;;;;;11.33;8.30;;;11.70;99.90;;;;;;5052518;28;20233;-67
2022/06/05 03:25:42;;;;;;;10.23;8.30;;;11.70;99.90;;;;;;5052076;28;20249;-66
2022/06/05 03:28:11;;;;;;;11.03;8.83;;;11.80;99.90;;;;;;5052258;28;20270;-67
2022/06/05 03:30:42;;;;;;;8.87;7.97;;;11.80;99.90;;;;;;5050895;28;20218;-67
2022/06/05 03:33:11;;;;;;;9.53;8.57;;;11.90;99.90;;;;;;5051848;28;20229;-66
2022/06/05 03:35:41;;;;;;;10.87;8.67;;;11.90;99.90;;;;;;5051986;28;20585;-67
2022/06/05 03:38:10;;;;;;;9.87;8.87;;;11.90;99.90;;;;;;5052222;28;20241;-67
2022/06/05 03:40:40;;;;;;;9.47;8.50;;;12.00;99.90;;;;;;5050801;28;20232;-67
2022/06/05 03:43:09;;;;;;;10.40;8.90;;;12.10;99.90;;;;;;5052414;28;20235;-67
2022/06/05 03:45:38;;;;;;;11.17;8.67;;;12.10;99.90;;;;;;5052027;28;20216;-67
2022/06/05 03:48:08;;;;;;;11.90;9.50;;;12.20;99.90;;;;;;5052181;28;20233;-67
2022/06/05 03:50:39;;;;;;;10.60;9.57;;;12.20;99.90;;;;;;5042663;28;20229;-67
2022/06/05 03:53:08;;;;;;;9.93;8.93;;;12.30;99.90;;;;;;5052129;28;20237;-66
2022/06/05 03:55:36;;;;;;;11.93;9.53;;;12.50;99.90;;;;;;5051620;28;20297;-67
2022/06/05 03:58:04;;;;;;;12.77;10.03;;;12.60;99.90;;;;;;5052025;28;20219;-67
2022/06/05 04:00:32;;;;;;;12.97;10.50;;;12.70;99.90;;;;;;5050599;28;20234;-67
2022/06/05 04:03:00;;;;;;;12.57;9.80;;;12.70;99.90;;;;;;5051768;28;20723;-66
2022/06/05 04:05:30;;;;;;;13.00;10.20;;;12.80;99.90;;;;;;5051801;28;20689;-67
2022/06/05 04:07:58;;;;;;;12.70;9.67;;;12.80;99.90;;;;;;5052047;28;20628;-67
2022/06/05 04:10:26;;;;;;;12.50;10.40;;;12.90;99.90;;;;;;5048301;28;20226;-67
2022/06/05 04:12:54;;;;;;;11.03;9.73;;;13.00;99.90;;;;;;5052535;28;20234;-67
2022/06/05 04:15:22;;;;;;;13.50;10.37;;;13.00;99.90;;;;;;5055243;28;20590;-67
2022/06/05 04:17:51;;;;;;;12.80;9.93;;;13.20;99.90;;;;;;5055799;28;20231;-67
2022/06/05 04:20:19;;;;;;;11.73;10.30;;;13.30;99.90;;;;;;5053622;28;20246;-66
2022/06/05 04:22:48;;;;;;;12.67;9.83;;;13.30;99.90;;;;;;5055944;28;20747;-67
2022/06/05 04:25:18;;;;;;;10.57;9.33;;;13.40;99.90;;;;;;5054577;28;20224;-66
2022/06/05 04:27:46;;;;;;;12.20;10.43;;;13.50;99.90;;;;;;5055308;28;20232;-67
2022/06/05 04:30:14;;;;;;;11.83;10.17;;;13.60;99.90;;;;;;5053775;28;20729;-67
2022/06/05 04:32:43;;;;;;;11.37;9.20;;;13.80;99.90;;;;;;5047702;28;20698;-67
2022/06/05 04:35:11;;;;;;;12.47;9.77;;;13.80;99.90;;;;;;5054471;28;20241;-67
2022/06/05 04:37:39;;;;;;;11.43;9.37;;;13.90;99.90;;;;;;5055153;28;20230;-67
2022/06/05 04:40:10;;;;;;;10.77;9.73;;;14.00;99.90;;;;;;5054001;28;20313;-67
2022/06/05 04:42:39;;;;;;;11.50;9.30;;;14.20;99.90;;;;;;5055236;28;20228;-67
2022/06/05 04:45:08;;;;;;;10.33;8.77;;;14.30;99.90;;;;;;5054947;28;20227;-67
2022/06/05 04:47:36;;;;;;;10.27;9.27;;;14.30;99.90;;;;;;5055141;28;20742;-67
2022/06/05 04:50:05;;;;;;;10.93;9.83;;;14.50;99.90;;;;;;5054017;28;20586;-67
2022/06/05 04:52:33;;;;;;;12.33;9.70;;;14.50;99.90;;;;;;5054200;28;20231;-67
2022/06/05 04:55:02;;;;;;;9.87;8.83;;;14.70;99.90;;;;;;5053745;28;20234;-66
2022/06/05 04:57:31;;;;;;;10.63;8.60;;;14.80;99.90;;;;;;5054843;28;20219;-66
2022/06/05 05:00:00;;;;;;;11.73;9.40;;;15.00;99.90;;;;;;5053446;28;20266;-67
2022/06/05 05:02:28;;;;;;;9.23;8.17;;;15.10;99.90;;;;;;5054286;28;20698;-66
2022/06/05 05:04:57;;;;;;;9.50;8.57;;;15.20;99.90;;;;;;5053358;28;20269;-67
2022/06/05 05:07:25;;;;;;;9.33;8.30;;;15.40;99.90;;;;;;5054022;28;20231;-67
2022/06/05 05:09:53;;;;;;;10.07;8.63;;;15.40;99.90;;;;;;5052130;28;20605;-67
2022/06/05 05:12:22;;;;;;;9.40;8.43;;;15.60;99.90;;;;;;5053981;28;20715;-66
2022/06/05 05:14:52;;;;;;;9.57;8.37;;;15.80;99.90;;;;;;5051296;28;20318;-67
2022/06/05 05:17:21;;;;;;;9.00;8.20;;;15.90;99.90;;;;;;5053807;28;20244;-66
2022/06/05 05:19:49;;;;;;;11.13;8.57;;;16.10;99.90;;;;;;5050910;28;20243;-67
2022/06/05 05:22:17;;;;;;;9.33;7.90;;;16.20;99.90;;;;;;5052611;28;20216;-66
2022/06/05 05:24:45;;;;;;;9.83;8.83;;;16.40;99.90;;;;;;5052439;28;20721;-66
2022/06/05 05:27:13;;;;;;;8.90;8.10;;;16.50;99.90;;;;;;5054578;28;20266;-67
2022/06/05 05:29:42;;;;;;;9.90;8.90;;;16.70;99.90;;;;;;5052729;28;20220;-66
2022/06/05 05:32:12;;;;;;;10.10;9.10;;;16.70;99.90;;;;;;5054509;28;20751;-67
2022/06/05 05:34:40;;;;;;;10.87;8.93;;;16.90;99.90;;;;;;5050822;28;20716;-67
2022/06/05 05:37:08;;;;;;;10.20;9.00;;;16.80;99.90;;;;;;5050466;28;20583;-67
2022/06/05 05:42:22;;;;;;;10.07;8.70;;;17.00;99.90;;;;;;5053851;28;20281;-67
2022/06/05 05:44:51;;;;;;;9.67;8.67;;;17.10;99.90;;;;;;5054037;28;20263;-67
2022/06/05 05:47:23;;;;;;;8.77;7.87;;;17.20;99.90;;;;;;5050482;28;20227;-67
2022/06/05 05:49:53;;;;;;;9.87;8.23;;;17.60;99.90;;;;;;5052884;28;20759;-67
2022/06/05 05:52:21;;;;;;;9.10;8.13;;;17.70;99.90;;;;;;5053725;28;20220;-67
2022/06/05 05:54:50;;;;;;;8.93;8.03;;;17.80;99.90;;;;;;5054174;28;20232;-67
2022/06/05 05:57:19;;;;;;;9.40;8.40;;;18.00;99.90;;;;;;5048344;28;20216;-67
2022/06/05 05:59:48;;;;;;;9.10;7.97;;;18.00;99.90;;;;;;5052541;28;20216;-67
2022/06/05 06:02:21;;;;;;;9.67;8.30;;;18.10;99.90;;;;;;5053067;28;20226;-67
2022/06/05 06:04:53;;;;;;;9.00;7.73;;;18.10;99.90;;;;;;5053561;28;20247;-67
2022/06/05 06:07:21;;;;;;;8.80;7.90;;;18.40;99.90;;;;;;5052404;28;20255;-67
2022/06/05 06:09:49;;;;;;;9.50;8.00;;;18.60;99.90;;;;;;5052677;28;20230;-67
2022/06/05 06:12:23;;;;;;;8.07;7.27;;;18.60;99.90;;;;;;5053422;28;20256;-67
2022/06/05 06:14:52;;;;;;;8.57;7.63;;;18.90;99.90;;;;;;5053166;28;20252;-67
2022/06/05 06:17:21;;;;;;;8.87;7.07;;;19.00;99.90;;;;;;5052288;28;20220;-67
2022/06/05 06:19:51;;;;;;;7.97;7.17;;;19.30;99.90;;;;;;5051358;28;20692;-67
2022/06/05 06:22:19;;;;;;;8.57;6.63;;;19.30;99.90;;;;;;5053150;28;20803;-67
2022/06/05 06:24:48;;;;;;;7.50;6.80;;;19.50;99.90;;;;;;5053469;28;20240;-67
2022/06/05 06:27:16;;;;;;;7.03;6.30;;;19.50;99.90;;;;;;5052692;28;20625;-67
2022/06/05 06:29:44;;;;;;;6.57;5.97;;;19.70;99.90;;;;;;5051735;28;20249;-67
2022/06/05 06:32:12;;;;;;;7.47;6.33;;;19.80;99.90;;;;;;5052712;28;20218;-67
2022/06/05 06:34:40;;;;;;;7.93;6.40;;;19.60;99.90;;;;;;5052523;28;20275;-67
2022/06/05 06:37:10;;;;;;;7.93;6.40;;;19.80;99.90;;;;;;5051448;28;20230;-67
2022/06/05 06:39:38;;;;;;;6.60;5.53;;;20.00;99.90;;;;;;5051525;28;20654;-67
2022/06/05 06:42:06;;;;;;;6.80;6.20;;;20.10;99.90;;;;;;5052531;28;20229;-67
2022/06/05 06:44:34;;;;;;;7.77;5.90;;;20.20;99.90;;;;;;5052479;28;20694;-67
2022/06/05 06:47:03;;;;;;;6.63;5.80;;;20.20;99.90;;;;;;5052277;28;20258;-67
2022/06/05 06:49:33;;;;;;;6.80;6.10;;;20.30;99.90;;;;;;5050735;28;20705;-67
2022/06/05 06:52:02;;;;;;;6.77;5.97;;;20.50;99.90;;;;;;5051917;28;20273;-67
2022/06/05 06:54:31;;;;;;;6.77;6.10;;;20.60;99.90;;;;;;5052763;28;20285;-67
2022/06/05 06:56:59;;;;;;;6.43;5.27;;;20.80;99.90;;;;;;5052624;28;20227;-67
2022/06/05 06:59:29;;;;;;;5.83;5.20;;;21.20;99.90;;;;;;5050952;28;20715;-67
2022/06/05 07:01:57;;;;;;;5.93;5.37;;;21.30;99.90;;;;;;5052726;28;20683;-67
2022/06/05 07:04:25;;;;;;;5.77;5.20;;;21.40;99.90;;;;;;5052021;28;20579;-67
2022/06/05 07:06:53;;;;;;;5.20;4.70;;;21.40;99.90;;;;;;5052812;28;20752;-67
2022/06/05 07:09:22;;;;;;;6.43;5.10;;;21.50;99.90;;;;;;5050610;28;20262;-67
2022/06/05 07:11:51;;;;;;;5.20;4.63;;;21.70;99.90;;;;;;5052469;28;20224;-67
2022/06/05 07:14:20;;;;;;;5.97;4.70;;;21.80;99.90;;;;;;5052394;28;20686;-67
2022/06/05 07:16:49;;;;;;;5.17;4.40;;;22.10;99.90;;;;;;5051664;28;20215;-67
2022/06/05 07:19:18;;;;;;;5.10;4.30;;;22.30;99.90;;;;;;5047829;28;20277;-66
2022/06/05 07:21:47;;;;;;;4.97;4.00;;;22.20;99.90;;;;;;5052431;28;20229;-67
2022/06/05 07:24:15;;;;;;;4.10;3.70;;;22.30;99.90;;;;;;5052096;28;20231;-67
2022/06/05 07:26:43;;;;;;;4.20;3.80;;;22.50;99.90;;;;;;5050670;28;20227;-67
2022/06/05 07:29:13;;;;;;;4.60;3.90;;;22.90;99.90;;;;;;5050347;28;20230;-67
2022/06/05 07:31:41;;;;;;;4.40;3.60;;;22.90;99.90;;;;;;5051739;28;20614;-67
2022/06/05 07:34:10;;;;;;;4.00;3.70;;;23.00;99.90;;;;;;5050868;28;20224;-67
2022/06/05 07:36:39;;;;;;;4.37;3.93;;;22.90;99.90;;;;;;5050625;28;20704;-67
2022/06/05 07:39:07;;;;;;;3.70;3.40;;;22.60;99.90;;;;;;5048570;28;20227;-67
2022/06/05 07:41:38;;;;;;;5.33;3.37;;;22.90;99.90;;;;;;5049232;28;20916;-67
2022/06/05 07:44:08;;;;;;;4.40;3.57;;;23.40;99.90;;;;;;5051977;28;20238;-67
2022/06/05 07:46:37;;;;;;;3.90;3.57;;;23.90;99.90;;;;;;5051492;28;20250;-67
2022/06/05 07:49:06;;;;;;;3.50;3.20;;;23.80;99.90;;;;;;5054032;28;20274;-67
2022/06/05 07:54:30;;;;;;;3.73;3.40;;;23.90;99.90;;;;;;5055764;28;20220;-67
2022/06/05 07:57:01;;;;;;;4.27;3.00;;;24.00;99.90;;;;;;5056075;28;20580;-67
2022/06/05 07:59:32;;;;;;;4.40;3.30;;;24.40;99.90;;;;;;5054147;28;20747;-67
2022/06/05 08:02:06;;;;;;;3.27;3.03;;;25.00;99.90;;;;;;5051587;28;20225;-67
2022/06/05 08:04:36;;;;;;;3.40;3.10;;;25.00;99.90;;;;;;5054380;28;20310;-67
2022/06/05 08:07:06;;;;;;;4.27;3.40;;;24.90;99.90;;;;;;5055526;28;20220;-67
2022/06/05 08:09:36;;;;;;;3.93;3.20;;;25.00;99.90;;;;;;5054204;28;20216;-67
2022/06/05 08:12:05;;;;;;;5.00;3.67;;;25.10;99.90;;;;;;5055582;28;20225;-67
2022/06/05 08:14:35;;;;;;;3.83;3.43;;;25.20;99.90;;;;;;5055017;28;20264;-67
2022/06/05 08:17:07;;;;;;;4.57;3.30;;;25.40;99.90;;;;;;5054281;28;20618;-67
2022/06/05 08:19:38;;;;;;;6.37;3.77;;;25.30;99.90;;;;;;5052520;28;20738;-67
2022/06/05 08:22:07;;;;;;;5.43;3.73;;;25.20;99.90;;;;;;5055868;28;20224;-67
2022/06/05 08:24:35;;;;;;;4.13;3.20;;;24.80;99.90;;;;;;5055609;28;20300;-67
2022/06/05 08:27:10;;;;;;;3.50;3.20;;;25.00;99.90;;;;;;5055690;28;20228;-67
2022/06/05 08:29:38;;;;;;;3.83;3.40;;;24.80;99.90;;;;;;5053569;28;20237;-67
2022/06/05 08:32:09;;;;;;;4.03;3.40;;;24.90;99.90;;;;;;5055592;28;20274;-67
2022/06/05 08:34:37;;;;;;;4.07;3.73;;;25.30;99.90;;;;;;5055185;28;20232;-67
2022/06/05 08:43:07;;;;;;;3.73;3.30;;;25.70;99.90;;;;;;5053667;28;20228;-66
2022/06/05 08:45:42;;;;;;;6.10;3.50;;;25.70;99.90;;;;;;5054878;28;20693;-67
2022/06/05 08:48:21;;;;;;;4.20;3.67;;;25.90;99.90;;;;;;5053968;28;20256;-67
2022/06/05 08:50:53;;;;;;;3.87;3.50;;;25.80;99.90;;;;;;5051071;28;20730;-67
2022/06/05 08:53:25;;;;;;;3.60;3.30;;;26.00;99.90;;;;;;5054189;28;20733;-66
2022/06/05 08:55:55;;;;;;;5.70;3.80;;;26.20;99.90;;;;;;5054930;28;20241;-67
2022/06/05 08:58:29;;;;;;;3.97;3.50;;;26.10;99.90;;;;;;5053524;28;20242;-67
2022/06/05 09:01:02;;;;;;;3.90;3.60;;;26.00;99.90;;;;;;5053090;28;20218;-67
2022/06/05 09:03:39;;;;;;;5.50;3.47;;;25.50;99.90;;;;;;5054724;28;20250;-67
2022/06/05 09:06:15;;;;;;;5.03;3.90;;;25.30;99.90;;;;;;5055027;28;20235;-67
2022/06/05 09:08:44;;;;;;;5.40;3.67;;;25.50;99.90;;;;;;5054358;28;20627;-66
2022/06/05 09:11:16;;;;;;;3.90;3.50;;;25.60;99.90;;;;;;5053914;28;20871;-67
2022/06/05 09:13:48;;;;;;;4.30;3.77;;;25.90;99.90;;;;;;5051987;28;20284;-67
2022/06/05 09:16:23;;;;;;;4.60;3.47;;;26.00;99.90;;;;;;5054962;28;20284;-67
2022/06/05 09:18:53;;;;;;;5.13;3.67;;;26.20;99.90;;;;;;5053369;28;20246;-66
2022/06/05 09:21:25;;;;;;;4.17;3.50;;;26.30;99.90;;;;;;5051537;28;20230;-67
2022/06/05 09:24:04;;;;;;;4.17;3.60;;;26.50;99.90;;;;;;5054297;28;20258;-67
2022/06/05 09:26:42;;;;;;;4.77;3.60;;;26.40;99.90;;;;;;5054551;28;20246;-67
2022/06/05 09:29:25;;;;;;;4.97;3.50;;;26.30;99.90;;;;;;5052385;28;20250;-67
2022/06/05 09:32:15;;;;;;;3.73;3.40;;;26.50;99.90;;;;;;5047984;28;20690;-67
2022/06/05 09:34:51;;;;;;;3.83;3.40;;;26.70;99.90;;;;;;5053937;28;20235;-67
2022/06/05 09:37:25;;;;;;;3.80;3.40;;;26.30;99.90;;;;;;5054143;28;20229;-67
2022/06/05 09:39:59;;;;;;;6.00;3.67;;;26.60;99.90;;;;;;5048580;28;20305;-67
2022/06/05 09:42:47;;;;;;;3.80;3.40;;;26.40;99.90;;;;;;5053955;28;20625;-67
2022/06/05 09:45:37;;;;;;;4.73;3.67;;;26.10;99.90;;;;;;5054143;28;20283;-67
2022/06/05 09:48:14;;;;;;;3.73;3.33;;;25.70;99.90;;;;;;5053796;28;20591;-67
2022/06/05 09:50:44;;;;;;;3.80;3.43;;;25.60;99.90;;;;;;5048011;28;20347;-67
2022/06/05 09:53:16;;;;;;;4.53;3.40;;;25.50;99.90;;;;;;5049853;28;20231;-67
2022/06/05 09:55:56;;;;;;;3.87;3.57;;;25.50;99.90;;;;;;5040462;28;20238;-67
2022/06/05 09:58:43;;;;;;;4.07;3.53;;;25.20;99.90;;;;;;5052822;28;20230;-67
2022/06/05 10:01:24;;;;;;;4.20;3.80;;;25.00;99.90;;;;;;5051341;28;20219;-67
2022/06/05 10:03:54;;;;;;;3.73;3.13;;;24.80;99.90;;;;;;5051059;28;20243;-67
2022/06/05 10:06:35;;;;;;;3.73;3.37;;;25.00;99.90;;;;;;5050987;28;20586;-67
2022/06/05 10:09:12;;;;;;;3.70;3.40;;;25.50;99.90;;;;;;5052001;28;20736;-67
2022/06/05 10:11:48;;;;;;;3.77;3.10;;;25.70;99.90;;;;;;5051859;28;20245;-67
2022/06/05 10:14:27;;;;;;;3.77;3.47;;;25.60;99.90;;;;;;5053205;28;20334;-66
2022/06/05 10:17:15;;;;;;;3.33;3.00;;;25.70;99.90;;;;;;5053077;28;20637;-67
2022/06/05 10:20:15;;;;;;;4.30;2.80;;;25.70;99.90;;;;;;5046146;28;20311;-67
2022/06/05 10:22:50;;;;;;;3.67;3.37;;;25.40;99.90;;;;;;5045387;28;20706;-67
2022/06/05 10:25:28;;;;;;;3.20;2.80;;;25.60;99.90;;;;;;5053496;28;20222;-67
2022/06/05 10:28:00;;;;;;;3.67;3.03;;;26.00;99.90;;;;;;5052679;28;20281;-67
2022/06/05 10:30:33;;;;;;;3.77;3.20;;;26.00;99.90;;;;;;5049961;28;20238;-67
2022/06/05 10:33:07;;;;;;;3.30;3.00;;;26.20;99.90;;;;;;5052908;28;20230;-67
2022/06/05 10:35:47;;;;;;;4.37;3.30;;;26.20;99.90;;;;;;5052930;28;20597;-67
2022/06/05 10:38:32;;;;;;;3.23;2.70;;;26.10;99.90;;;;;;5052733;28;20225;-67
2022/06/05 10:41:05;;;;;;;3.20;2.90;;;26.00;99.90;;;;;;5050303;28;20237;-65
2022/06/05 10:43:35;;;;;;;3.27;3.03;;;26.20;99.90;;;;;;5051861;28;20265;-66
2022/06/05 10:46:06;;;;;;;4.27;3.00;;;26.00;99.90;;;;;;5053017;28;20319;-65
2022/06/05 10:48:43;;;;;;;6.73;3.30;;;26.20;99.90;;;;;;5047581;28;20330;-65
2022/06/05 10:51:20;;;;;;;5.03;3.03;;;26.40;99.90;;;;;;5051978;28;20265;-65
2022/06/05 10:53:55;;;;;;;4.53;3.07;;;26.20;99.90;;;;;;5039813;28;20695;-65
2022/06/05 10:56:32;;;;;;;5.23;3.00;;;25.80;99.90;;;;;;5052377;28;20238;-65
2022/06/05 10:59:10;;;;;;;3.27;2.70;;;25.90;99.90;;;;;;5051413;28;20709;-65
2022/06/05 11:02:02;;;;;;;3.33;3.03;;;26.20;99.90;;;;;;5051642;28;20262;-65
2022/06/05 11:04:48;;;;;;;3.43;3.10;;;26.50;99.90;;;;;;5054391;28;20230;-65
2022/06/05 11:07:38;;;;;;;3.97;3.00;;;26.00;99.90;;;;;;5058822;28;20279;-65
2022/06/05 11:10:19;;;;;;;4.83;3.37;;;26.10;99.90;;;;;;5057301;28;20257;-65
2022/06/05 11:15:58;;;;;;;4.10;3.00;;;26.40;99.90;;;;;;5022007;28;20239;-65
2022/06/05 11:18:35;;;;;;;3.47;2.70;;;26.80;99.90;;;;;;5051409;28;20245;-65
2022/06/05 11:21:04;;;;;;;3.40;3.10;;;26.90;99.90;;;;;;5050437;28;20234;-65
2022/06/05 11:23:36;;;;;;;4.70;2.80;;;27.00;99.90;;;;;;5052372;28;20318;-65
2022/06/05 11:26:20;;;;;;;3.20;3.00;;;27.10;99.90;;;;;;5044664;28;20223;-64
2022/06/05 11:29:03;;;;;;;3.17;2.93;;;27.00;99.90;;;;;;5050171;28;20621;-64
2022/06/05 11:31:42;;;;;;;3.20;2.90;;;26.80;99.90;;;;;;5050482;28;20260;-65
2022/06/05 11:34:25;;;;;;;5.00;2.97;;;27.00;99.90;;;;;;5053969;28;20288;-65
2022/06/05 11:36:55;;;;;;;2.87;2.67;;;27.50;99.90;;;;;;5049926;28;20225;-64
2022/06/05 11:39:31;;;;;;;3.40;2.90;;;28.00;99.10;;;;;;5048915;28;20758;-65
2022/06/05 11:42:14;;;;;;;3.27;2.97;;;28.10;99.80;;;;;;5051213;28;20262;-64
2022/06/05 11:44:49;;;;;;;3.50;3.27;;;28.30;99.00;;;;;;5038259;28;20336;-64
2022/06/05 11:47:39;;;;;;;3.57;2.90;;;27.60;98.60;;;;;;5038358;28;20241;-64
2022/06/05 11:50:23;;;;;;;3.10;2.90;;;27.20;99.40;;;;;;5035572;28;20230;-64
2022/06/05 11:53:05;;;;;;;3.33;3.03;;;26.90;99.30;;;;;;5033789;28;20308;-64
2022/06/05 11:55:37;;;;;;;3.30;3.00;;;26.40;99.20;;;;;;5037736;28;20226;-65
2022/06/05 11:58:12;;;;;;;3.40;3.00;;;26.10;99.90;;;;;;5037617;28;20329;-64
2022/06/05 12:00:47;;;;;;;4.40;3.10;;;25.90;99.60;;;;;;5036944;28;20706;-64
2022/06/05 12:03:19;;;;;;;3.13;2.83;;;26.00;99.90;;;;;;5034092;28;20239;-63
2022/06/05 12:05:57;;;;;;;4.47;3.07;;;26.20;99.90;;;;;;5036807;28;20246;-64
2022/06/05 12:08:31;;;;;;;3.23;2.90;;;26.30;99.70;;;;;;5037064;28;20234;-64
2022/06/05 12:11:05;;;;;;;3.80;3.00;;;26.00;99.90;;;;;;5036489;28;20271;-65
2022/06/05 12:13:58;;;;;;;3.27;2.97;;;26.10;99.90;;;;;;5032426;28;20242;-64
2022/06/05 12:16:36;;;;;;;4.40;2.80;;;25.90;99.90;;;;;;5037590;28;20713;-65
2022/06/05 12:19:14;;;;;;;3.03;2.73;;;25.90;99.90;;;;;;5035364;28;20714;-64
2022/06/05 12:21:53;;;;;;;3.27;2.97;;;26.10;99.90;;;;;;5037439;28;20221;-64
2022/06/05 12:24:27;;;;;;;3.10;2.90;;;26.10;99.90;;;;;;5034562;28;20223;-64
2022/06/05 12:27:01;;;;;;;3.00;2.80;;;25.80;99.90;;;;;;5037844;28;20237;-65
2022/06/05 12:29:34;;;;;;;3.00;2.73;;;25.90;99.90;;;;;;5035787;28;20245;-65
2022/06/05 12:32:08;;;;;;;3.33;2.97;;;25.90;99.40;;;;;;5035055;28;20235;-63
2022/06/05 12:34:42;;;;;;;3.70;2.83;;;26.00;99.20;;;;;;5037208;28;20628;-67
2022/06/05 12:37:18;;;;;;;3.63;3.10;;;25.90;99.70;;;;;;5041268;28;20234;-67
2022/06/05 12:39:49;;;;;;;3.80;2.93;;;26.10;99.90;;;;;;5039592;28;20721;-67
2022/06/05 12:42:29;;;;;;;3.50;2.70;;;25.90;99.20;;;;;;5037682;28;20722;-66
2022/06/05 12:45:02;;;;;;;3.10;2.80;;;25.70;99.80;;;;;;5040992;28;20226;-66
2022/06/05 12:47:52;;;;;;;3.43;2.80;;;25.80;99.90;;;;;;5041057;28;20235;-67
2022/06/05 12:50:39;;;;;;;3.63;3.13;;;25.80;99.40;;;;;;5037965;28;20237;-67
2022/06/05 12:53:15;;;;;;;3.00;2.80;;;25.60;99.60;;;;;;5036294;28;20242;-66
2022/06/05 12:55:48;;;;;;;3.47;3.27;;;25.70;99.90;;;;;;5040446;28;20258;-68
2022/06/05 12:58:21;;;;;;;3.13;2.83;;;25.70;99.10;;;;;;5040039;28;20345;-68
2022/06/05 13:00:57;;;;;;;3.28;2.97;;;25.70;99.60;;;;;;5036608;28;21088;-68
2022/06/05 13:03:32;;;;;;;3.57;2.97;;;25.50;99.90;;;;;;5036029;28;21148;-67
2022/06/05 13:06:05;;;;;;;3.93;3.13;;;25.70;99.90;;;;;;5039676;28;20222;-67
2022/06/05 13:08:42;;;;;;;3.30;2.90;;;25.50;99.70;;;;;;5040138;28;20327;-69
2022/06/05 13:11:15;;;;;;;3.40;3.10;;;25.50;99.90;;;;;;5038317;28;20241;-67
2022/06/05 13:13:50;;;;;;;2.83;2.63;;;25.60;99.90;;;;;;5036255;28;20240;-68
2022/06/05 13:16:37;;;;;;;5.30;3.13;;;25.50;99.90;;;;;;5039958;28;20624;-69
2022/06/05 13:19:30;;;;;;;4.03;2.93;;;25.50;99.50;;;;;;5038311;28;20296;-68
2022/06/05 13:22:11;;;;;;;3.30;3.00;;;25.40;99.40;;;;;;5029001;28;20289;-66
2022/06/05 13:24:50;;;;;;;3.43;3.00;;;25.30;98.90;;;;;;5039033;28;20333;-63
2022/06/05 13:27:29;;;;;;;3.00;2.70;;;25.30;98.80;;;;;;5041492;28;20705;-64
2022/06/05 13:30:06;;;;;;;2.80;2.60;;;25.30;98.70;;;;;;5039341;28;20308;-64
2022/06/05 13:32:48;;;;;;;3.40;2.80;;;25.10;98.30;;;;;;5036394;28;20232;-64